sim
Sign-in with your pilot id or email,
or register
Callsign
Passwort

Schedule Details

Flight Number: OEO7683
Departure: New York John F. Kennedy International Airport (KJFK) at 21:50
Arrival: Munich Airport (EDDM) at 05:45

Weather Information
Getting current METAR information for KJFK 211851Z 04012G17KT 10SM FEW060 SCT300 19/00 A3050 RMK AO2 SLP329 FU SCT300 T01890000 $
Getting current METAR information for EDDM 211920Z 34001KT CAVOK 13/12 Q1016 NOSIG

Schedule Frequency

Route Map